Time;durP1;ratioP1;P1;durP2;ratioP2;P2;SDS_P1;SDS_P2;PMS_P1;PMS_P2;Temp;Humidity;BMP_temperature;BMP_pressure;BME280_temperature;BME280_humidity;BME280_pressure;Samples;Min_cycle;Max_cycle;Signal;HPM_P1;HPM_P2
2023/01/06 00:00:31;;;;;;;;;;;;;;;18.31;42.17;100683.13;102233;1326;61393;-81
2023/01/06 00:02:57;;;;;;;;;;;;;;;18.31;42.28;100687.23;102119;1334;61388;-83
2023/01/06 00:05:22;;;;;;;;;;;;;;;18.31;42.07;100683.81;102111;1334;61315;-82
2023/01/06 00:07:48;;;;;;;;;;;;;;;18.32;42.23;100686.98;102243;1332;61325;-84
2023/01/06 00:10:14;;;;;;;;;;;;;;;18.32;42.21;100691.42;102175;1329;61256;-84
2023/01/06 00:12:42;;;;;;;;;;;;;;;18.32;42.20;100695.88;102216;1326;60033;-83
2023/01/06 00:15:08;;;;;;;;;;;;;;;18.32;42.32;100694.95;102188;1320;61282;-83
2023/01/06 00:17:33;;;;;;;;;;;;;;;18.32;42.16;100695.68;102200;1320;61286;-83
2023/01/06 00:19:59;;;;;;;;;;;;;;;18.33;42.27;100702.41;102096;1329;61364;-83
2023/01/06 00:22:24;;;;;;;;;;;;;;;18.33;42.13;100696.57;102277;1326;61369;-83
2023/01/06 00:24:50;;;;;;;;;;;;;;;18.33;42.34;100689.38;102190;1332;61409;-84
2023/01/06 00:27:15;;;;;;;;;;;;;;;18.34;42.21;100684.02;102126;1329;61353;-83
2023/01/06 00:29:40;;;;;;;;;;;;;;;18.34;42.16;100677.96;102148;1321;61322;-83
2023/01/06 00:32:06;;;;;;;;;;;;;;;18.34;42.05;100673.84;102256;1326;61101;-83
2023/01/06 00:34:31;;;;;;;;;;;;;;;18.34;42.18;100675.08;102193;1326;61303;-83
2023/01/06 00:36:57;;;;;;;;;;;;;;;18.35;42.13;100677.18;102090;1329;61726;-83
2023/01/06 00:39:22;;;;;;;;;;;;;;;18.35;42.09;100679.65;102157;1334;60146;-83
2023/01/06 00:42:03;;;;;;;;;;;;;;;18.35;42.23;100680.36;102203;1327;61296;-83
2023/01/06 00:44:33;;;;;;;;;;;;;;;18.35;42.05;100683.92;102257;1326;61324;-83
2023/01/06 00:46:58;;;;;;;;;;;;;;;18.36;42.12;100679.98;102176;1333;73565;-83
2023/01/06 00:49:25;;;;;;;;;;;;;;;18.36;41.98;100680.70;102127;1326;61308;-83
2023/01/06 00:51:50;;;;;;;;;;;;;;;18.36;42.19;100681.58;102098;1329;59925;-83
2023/01/06 00:54:16;;;;;;;;;;;;;;;18.36;42.29;100688.31;102215;1333;60157;-83
2023/01/06 00:56:45;;;;;;;;;;;;;;;18.36;42.11;100693.27;102106;1317;61350;-84
2023/01/06 00:59:11;;;;;;;;;;;;;;;18.36;41.99;100701.30;102174;1326;61272;-84
2023/01/06 01:01:36;;;;;;;;;;;;;;;18.37;42.18;100706.61;102189;1330;61423;-83
2023/01/06 01:04:02;;;;;;;;;;;;;;;18.37;42.14;100715.67;102220;1326;61318;-83
2023/01/06 01:06:27;;;;;;;;;;;;;;;18.38;42.12;100722.44;102105;1334;61321;-83
2023/01/06 01:08:53;;;;;;;;;;;;;;;18.38;42.12;100730.08;102257;1333;60070;-83
2023/01/06 01:14:10;;;;;;;;;;;;;;;18.38;42.17;100744.15;102049;1334;61160;-83
2023/01/06 01:16:36;;;;;;;;;;;;;;;18.38;42.16;100745.89;102108;1329;61360;-83
2023/01/06 01:19:01;;;;;;;;;;;;;;;18.39;42.10;100744.46;102122;1329;61207;-83
2023/01/06 01:21:27;;;;;;;;;;;;;;;18.39;42.19;100748.90;102217;1317;61288;-83
2023/01/06 01:23:52;;;;;;;;;;;;;;;18.39;42.27;100745.84;102249;1332;61359;-83
2023/01/06 01:26:18;;;;;;;;;;;;;;;18.39;42.09;100743.89;102218;1333;59879;-83
2023/01/06 01:28:43;;;;;;;;;;;;;;;18.40;42.15;100735.31;102191;1333;61313;-83
2023/01/06 01:31:09;;;;;;;;;;;;;;;18.40;42.03;100737.98;102089;1330;61464;-83
2023/01/06 01:33:34;;;;;;;;;;;;;;;18.40;42.22;100736.02;102152;1333;61398;-83
2023/01/06 01:36:07;;;;;;;;;;;;;;;18.40;42.16;100732.61;102246;1334;61445;-83
2023/01/06 01:38:32;;;;;;;;;;;;;;;18.40;42.08;100732.42;102227;1332;61304;-84
2023/01/06 01:40:58;;;;;;;;;;;;;;;18.41;42.17;100740.39;102119;1330;61354;-84
2023/01/06 01:43:24;;;;;;;;;;;;;;;18.41;42.16;100741.64;102103;1329;61305;-83
2023/01/06 01:45:50;;;;;;;;;;;;;;;18.41;42.23;100744.12;102079;1328;61306;-83
2023/01/06 01:48:25;;;;;;;;;;;;;;;18.42;41.99;100747.13;102210;1333;61322;-84
2023/01/06 01:50:52;;;;;;;;;;;;;;;18.42;42.06;100741.61;102095;1333;61357;-83
2023/01/06 01:53:18;;;;;;;;;;;;;;;18.42;42.04;100744.62;102236;1328;61187;-83
2023/01/06 01:55:46;;;;;;;;;;;;;;;18.42;42.00;100740.33;102181;1326;75484;-83
2023/01/06 01:58:12;;;;;;;;;;;;;;;18.42;42.05;100747.95;102237;1332;60066;-83
2023/01/06 02:00:38;;;;;;;;;;;;;;;18.43;42.15;100753.09;102095;1334;61328;-83
2023/01/06 02:03:04;;;;;;;;;;;;;;;18.43;42.08;100755.77;102079;1333;61367;-83
2023/01/06 02:05:29;;;;;;;;;;;;;;;18.44;42.15;100762.33;102103;1319;61321;-83
2023/01/06 02:07:56;;;;;;;;;;;;;;;18.44;41.89;100770.86;102155;1333;60856;-83
2023/01/06 02:10:22;;;;;;;;;;;;;;;18.44;42.02;100777.83;102187;1328;61404;-83
2023/01/06 02:12:48;;;;;;;;;;;;;;;18.44;42.19;100781.21;102098;1329;61312;-83
2023/01/06 02:15:19;;;;;;;;;;;;;;;18.45;42.15;100787.94;102154;1334;61418;-84
2023/01/06 02:18:04;;;;;;;;;;;;;;;18.45;42.10;100785.79;102254;1331;74827;-84
2023/01/06 02:20:35;;;;;;;;;;;;;;;18.45;42.11;100787.90;102257;1333;59821;-83
2023/01/06 02:23:11;;;;;;;;;;;;;;;18.46;42.14;100792.00;102219;1327;61306;-83
2023/01/06 02:25:50;;;;;;;;;;;;;;;18.46;42.06;100793.58;102116;1332;73412;-83
2023/01/06 02:28:18;;;;;;;;;;;;;;;18.46;41.98;100795.89;102234;1333;74589;-82
2023/01/06 02:31:03;;;;;;;;;;;;;;;18.46;42.03;100795.00;102191;1326;60009;-82
2023/01/06 02:33:28;;;;;;;;;;;;;;;18.46;42.04;100792.15;102263;1333;61605;-82
2023/01/06 02:35:54;;;;;;;;;;;;;;;18.46;42.04;100793.73;102229;1326;61458;-82
2023/01/06 02:38:27;;;;;;;;;;;;;;;18.47;42.03;100788.20;102234;1334;61310;-81
2023/01/06 02:41:19;;;;;;;;;;;;;;;18.47;41.95;100782.28;102223;1332;61207;-81
2023/01/06 02:43:50;;;;;;;;;;;;;;;18.47;42.17;100784.09;102197;1333;61477;-82
2023/01/06 02:46:16;;;;;;;;;;;;;;;18.47;41.99;100787.45;102216;1333;73546;-82
2023/01/06 02:49:00;;;;;;;;;;;;;;;18.48;41.92;100787.06;102247;1333;61350;-83
2023/01/06 02:51:49;;;;;;;;;;;;;;;18.48;42.03;100789.90;102233;1333;61279;-82
2023/01/06 02:54:17;;;;;;;;;;;;;;;18.48;41.99;100787.73;102222;1333;61229;-82
2023/01/06 02:56:44;;;;;;;;;;;;;;;18.49;41.90;100786.81;102241;1334;72675;-82
2023/01/06 02:59:12;;;;;;;;;;;;;;;18.49;42.02;100790.53;102244;1332;74280;-82
2023/01/06 03:01:39;;;;;;;;;;;;;;;18.49;42.08;100790.00;102135;1326;61727;-82
2023/01/06 03:04:06;;;;;;;;;;;;;;;18.49;42.03;100789.45;102203;1332;61139;-82
2023/01/06 03:06:31;;;;;;;;;;;;;;;18.50;41.96;100791.04;102099;1334;73381;-82
2023/01/06 03:08:57;;;;;;;;;;;;;;;18.50;42.00;100792.24;102076;1336;61414;-82
2023/01/06 03:11:26;;;;;;;;;;;;;;;18.50;41.96;100792.61;102216;1332;61340;-82
2023/01/06 03:13:57;;;;;;;;;;;;;;;18.50;41.85;100792.80;102216;1332;61429;-82
2023/01/06 03:16:23;;;;;;;;;;;;;;;18.50;42.04;100793.30;102243;1332;72622;-82
2023/01/06 03:18:49;;;;;;;;;;;;;;;18.50;41.98;100789.75;102085;1334;61277;-82
2023/01/06 03:21:15;;;;;;;;;;;;;;;18.51;42.01;100789.90;102229;1333;61458;-82
2023/01/06 03:23:40;;;;;;;;;;;;;;;18.50;41.90;100791.52;102233;1324;59279;-82
2023/01/06 03:26:06;;;;;;;;;;;;;;;18.51;41.95;100795.41;102122;1333;61380;-83
2023/01/06 03:28:31;;;;;;;;;;;;;;;18.51;41.79;100800.40;102245;1334;61280;-83
2023/01/06 03:31:11;;;;;;;;;;;;;;;18.51;41.86;100797.89;102193;1332;75779;-83
2023/01/06 03:33:38;;;;;;;;;;;;;;;18.52;41.91;100797.65;102122;1329;61268;-82
2023/01/06 03:36:08;;;;;;;;;;;;;;;18.52;41.89;100795.48;102246;1327;61340;-82
2023/01/06 03:38:53;;;;;;;;;;;;;;;18.52;41.91;100789.98;102175;1332;71596;-82
2023/01/06 03:43:10;;;;;;;;;;;;;;;18.53;41.81;100787.29;102222;1334;75658;-82
2023/01/06 03:44:12;;;;;;;;;;;;;;;18.53;41.82;100790.67;102236;1334;61298;-82
2023/01/06 03:46:39;;;;;;;;;;;;;;;18.53;41.72;100791.02;102090;1335;61275;-82
2023/01/06 03:49:05;;;;;;;;;;;;;;;18.54;41.79;100792.94;102098;1335;73681;-82
2023/01/06 03:51:34;;;;;;;;;;;;;;;18.54;41.80;100794.54;102229;1330;74506;-82
2023/01/06 03:54:06;;;;;;;;;;;;;;;18.53;41.96;100791.15;102216;1330;61145;-82
2023/01/06 03:56:40;;;;;;;;;;;;;;;18.54;41.90;100793.23;102246;1325;61271;-82
2023/01/06 03:59:07;;;;;;;;;;;;;;;18.54;41.87;100792.71;102225;1328;73673;-82
2023/01/06 04:01:33;;;;;;;;;;;;;;;18.54;41.84;100788.61;102162;1333;75396;-82
2023/01/06 04:03:58;;;;;;;;;;;;;;;18.55;41.88;100791.79;102219;1327;61369;-83
2023/01/06 04:06:24;;;;;;;;;;;;;;;18.55;41.84;100798.02;102089;1337;61407;-82
2023/01/06 04:08:49;;;;;;;;;;;;;;;18.55;41.72;100806.04;102215;1326;61434;-82
2023/01/06 04:14:09;;;;;;;;;;;;;;;18.56;41.95;100813.28;101798;1334;75553;-81
2023/01/06 04:16:34;;;;;;;;;;;;;;;18.56;41.81;100810.08;102211;1333;61509;-81
2023/01/06 04:19:00;;;;;;;;;;;;;;;18.57;41.82;100808.23;102149;1334;61317;-83
2023/01/06 04:21:25;;;;;;;;;;;;;;;18.57;41.74;100805.19;102134;1334;61294;-82
2023/01/06 04:23:51;;;;;;;;;;;;;;;18.57;41.79;100807.67;102174;1330;61382;-82
2023/01/06 04:26:16;;;;;;;;;;;;;;;18.58;41.68;100809.08;102188;1323;61335;-82
2023/01/06 04:28:42;;;;;;;;;;;;;;;18.57;41.64;100807.48;102196;1332;61324;-82
2023/01/06 04:31:10;;;;;;;;;;;;;;;18.59;41.88;100808.84;102107;1332;61307;-83
2023/01/06 04:33:35;;;;;;;;;;;;;;;18.59;41.67;100809.38;102099;1335;60115;-82
2023/01/06 04:36:01;;;;;;;;;;;;;;;18.59;41.74;100809.54;102175;1332;61375;-82
2023/01/06 04:38:26;;;;;;;;;;;;;;;18.59;41.67;100814.52;102199;1326;61380;-83
2023/01/06 04:40:52;;;;;;;;;;;;;;;18.60;41.75;100813.77;102235;1332;61385;-82
2023/01/06 04:43:17;;;;;;;;;;;;;;;18.60;41.70;100813.58;102232;1332;61194;-82
2023/01/06 04:45:43;;;;;;;;;;;;;;;18.60;41.73;100812.69;102182;1334;61299;-83
2023/01/06 04:48:09;;;;;;;;;;;;;;;18.60;41.71;100814.65;102089;1329;61340;-82
2023/01/06 04:50:34;;;;;;;;;;;;;;;18.60;41.77;100819.28;102234;1332;59989;-83
2023/01/06 04:52:59;;;;;;;;;;;;;;;18.61;41.64;100827.63;102152;1333;61216;-83
2023/01/06 04:55:25;;;;;;;;;;;;;;;18.62;41.62;100839.52;102099;1333;61288;-82
2023/01/06 04:57:50;;;;;;;;;;;;;;;18.62;41.58;100846.64;102213;1333;61477;-82
2023/01/06 05:00:16;;;;;;;;;;;;;;;18.63;41.66;100851.39;102125;1330;61315;-83
2023/01/06 05:02:42;;;;;;;;;;;;;;;18.63;41.54;100852.10;102190;1332;61258;-82
2023/01/06 05:05:07;;;;;;;;;;;;;;;18.63;41.64;100861.39;102226;1332;61308;-82
2023/01/06 05:07:33;;;;;;;;;;;;;;;18.63;41.67;100862.08;102205;1333;61238;-82
2023/01/06 05:09:58;;;;;;;;;;;;;;;18.63;41.69;100866.38;102084;1337;60121;-82
2023/01/06 05:12:23;;;;;;;;;;;;;;;18.63;41.65;100864.39;102199;1320;61422;-82
2023/01/06 05:14:49;;;;;;;;;;;;;;;18.63;41.79;100868.65;102030;1326;61308;-82
2023/01/06 05:17:14;;;;;;;;;;;;;;;18.63;41.60;100872.73;102137;1334;61308;-83
2023/01/06 05:19:41;;;;;;;;;;;;;;;18.64;41.62;100873.42;102080;1329;61302;-82
2023/01/06 05:22:30;;;;;;;;;;;;;;;18.64;41.66;100873.42;102229;1328;73461;-82
2023/01/06 05:24:56;;;;;;;;;;;;;;;18.64;41.50;100879.64;101858;1335;75068;-83
2023/01/06 05:27:21;;;;;;;;;;;;;;;18.65;41.48;100881.74;101854;1338;61296;-82
2023/01/06 05:29:46;;;;;;;;;;;;;;;18.66;41.64;100889.91;101703;1332;61372;-82
2023/01/06 05:32:12;;;;;;;;;;;;;;;18.66;41.72;100893.98;101928;1326;61285;-82
2023/01/06 05:34:39;;;;;;;;;;;;;;;18.66;41.49;100896.67;101919;1340;61305;-83
2023/01/06 05:37:04;;;;;;;;;;;;;;;18.66;41.60;100898.98;101731;1335;75484;-82
2023/01/06 05:39:30;;;;;;;;;;;;;;;18.66;41.44;100899.66;101790;1342;61391;-82
2023/01/06 05:41:55;;;;;;;;;;;;;;;18.67;41.57;100898.21;101765;1336;61291;-83
2023/01/06 05:44:20;;;;;;;;;;;;;;;18.67;41.46;100899.09;101725;1340;61554;-82
2023/01/06 05:46:46;;;;;;;;;;;;;;;18.67;41.49;100902.30;101914;1340;61405;-82
2023/01/06 05:49:11;;;;;;;;;;;;;;;18.67;41.49;100899.25;101765;1342;61467;-82
2023/01/06 05:51:37;;;;;;;;;;;;;;;18.68;41.56;100898.52;101767;1340;61739;-82
2023/01/06 05:54:05;;;;;;;;;;;;;;;18.68;41.59;100894.05;101847;1340;61322;-82
2023/01/06 05:56:30;;;;;;;;;;;;;;;18.68;41.55;100899.73;101749;1343;61426;-82
2023/01/06 05:58:56;;;;;;;;;;;;;;;18.68;41.55;100898.67;101782;1342;61417;-82
2023/01/06 06:01:22;;;;;;;;;;;;;;;18.68;41.53;100905.24;101775;1334;61506;-82
2023/01/06 06:03:48;;;;;;;;;;;;;;;18.68;41.47;100904.70;102072;1329;61802;-82
2023/01/06 06:06:13;;;;;;;;;;;;;;;18.69;41.50;100908.90;102163;1329;61464;-82
2023/01/06 06:08:39;;;;;;;;;;;;;;;18.70;41.43;100909.77;102203;1334;72403;-82
2023/01/06 06:11:08;;;;;;;;;;;;;;;18.70;41.37;100910.28;102080;1333;60008;-83
2023/01/06 06:13:34;;;;;;;;;;;;;;;18.71;41.35;100914.54;102197;1326;61312;-83
2023/01/06 06:16:09;;;;;;;;;;;;;;;18.71;41.47;100918.11;102092;1329;61284;-83
2023/01/06 06:18:39;;;;;;;;;;;;;;;18.71;41.27;100927.55;102171;1330;72469;-83
2023/01/06 06:21:06;;;;;;;;;;;;;;;18.71;41.30;100933.05;102138;1336;73926;-83
2023/01/06 06:23:31;;;;;;;;;;;;;;;18.72;41.45;100942.48;102235;1326;61201;-83
2023/01/06 06:25:57;;;;;;;;;;;;;;;18.72;41.46;100951.70;102111;1323;60098;-82
2023/01/06 06:28:22;;;;;;;;;;;;;;;18.73;41.43;100954.36;102181;1332;60153;-82
2023/01/06 06:30:48;;;;;;;;;;;;;;;18.73;41.47;100958.77;102023;1329;61308;-82
2023/01/06 06:33:13;;;;;;;;;;;;;;;18.74;41.34;100964.27;102241;1334;61257;-82
2023/01/06 06:35:39;;;;;;;;;;;;;;;18.75;41.43;100968.50;102214;1333;61312;-82
2023/01/06 06:38:04;;;;;;;;;;;;;;;18.75;41.35;100966.70;102219;1327;61312;-83
2023/01/06 06:40:29;;;;;;;;;;;;;;;18.76;41.32;100967.02;102175;1326;61386;-82
2023/01/06 06:42:55;;;;;;;;;;;;;;;18.76;41.38;100969.70;102194;1333;60114;-83
2023/01/06 06:45:20;;;;;;;;;;;;;;;18.76;41.30;100973.93;102129;1329;61306;-82
2023/01/06 06:47:46;;;;;;;;;;;;;;;18.77;41.23;100977.66;102124;1330;61423;-83
2023/01/06 06:50:11;;;;;;;;;;;;;;;18.78;41.25;100982.97;102173;1333;61420;-83
2023/01/06 06:52:37;;;;;;;;;;;;;;;18.78;41.31;100986.86;102206;1328;61324;-82
2023/01/06 06:55:02;;;;;;;;;;;;;;;18.79;41.48;100997.52;102190;1333;61542;-83
2023/01/06 06:57:29;;;;;;;;;;;;;;;18.79;41.33;101007.00;102197;1334;61200;-84
2023/01/06 06:59:54;;;;;;;;;;;;;;;18.79;41.36;101007.86;102257;1333;61866;-83
2023/01/06 07:02:19;;;;;;;;;;;;;;;18.79;41.27;101013.17;102112;1333;61466;-83
2023/01/06 07:04:45;;;;;;;;;;;;;;;18.80;41.25;101017.61;102104;1326;61392;-83
2023/01/06 07:07:10;;;;;;;;;;;;;;;18.80;41.38;101024.02;102165;1327;61480;-83
2023/01/06 07:09:36;;;;;;;;;;;;;;;18.80;41.26;101030.41;102184;1328;59996;-83
2023/01/06 07:12:01;;;;;;;;;;;;;;;18.81;41.26;101036.29;102204;1332;61315;-83
2023/01/06 07:14:27;;;;;;;;;;;;;;;18.81;41.30;101045.01;102228;1334;61343;-83
2023/01/06 07:16:52;;;;;;;;;;;;;;;18.82;41.28;101046.73;102102;1334;61318;-81
2023/01/06 07:19:18;;;;;;;;;;;;;;;18.82;41.22;101048.14;102185;1333;61378;-82
2023/01/06 07:21:44;;;;;;;;;;;;;;;18.82;41.43;101055.62;102223;1330;61471;-82
2023/01/06 07:24:10;;;;;;;;;;;;;;;18.83;41.24;101069.67;102168;1334;61324;-83
2023/01/06 07:26:36;;;;;;;;;;;;;;;18.83;41.07;101077.12;102211;1327;61321;-83
2023/01/06 07:29:01;;;;;;;;;;;;;;;18.83;41.21;101083.01;102180;1324;60144;-82
2023/01/06 07:31:28;;;;;;;;;;;;;;;18.84;41.21;101091.02;102088;1334;61405;-82
2023/01/06 07:33:53;;;;;;;;;;;;;;;18.85;41.33;101102.91;102180;1333;61382;-82
2023/01/06 07:36:20;;;;;;;;;;;;;;;18.85;41.23;101106.99;102255;1326;61462;-83
2023/01/06 07:38:46;;;;;;;;;;;;;;;18.85;41.17;101102.36;102233;1329;60035;-82
2023/01/06 07:41:12;;;;;;;;;;;;;;;18.86;41.17;101096.09;102202;1326;61264;-83
2023/01/06 07:43:37;;;;;;;;;;;;;;;18.86;41.17;101104.27;102225;1330;61299;-83
2023/01/06 07:46:02;;;;;;;;;;;;;;;18.86;41.36;101110.15;102085;1328;59998;-83
2023/01/06 07:48:28;;;;;;;;;;;;;;;18.86;41.17;101106.56;102205;1333;61327;-83
2023/01/06 07:50:53;;;;;;;;;;;;;;;18.87;41.18;101107.08;102171;1328;61295;-83
2023/01/06 07:53:20;;;;;;;;;;;;;;;18.88;41.21;101116.14;102197;1329;61724;-83
2023/01/06 07:55:49;;;;;;;;;;;;;;;18.88;41.23;101119.15;102209;1327;59980;-83
2023/01/06 07:58:15;;;;;;;;;;;;;;;18.89;41.06;101123.77;102241;1330;61269;-82
2023/01/06 08:00:40;;;;;;;;;;;;;;;18.89;41.18;101128.20;102201;1328;61340;-82
2023/01/06 08:03:05;;;;;;;;;;;;;;;18.90;41.09;101136.55;102176;1326;61456;-83
2023/01/06 08:05:31;;;;;;;;;;;;;;;18.90;41.13;101140.96;102229;1321;61247;-83
2023/01/06 08:07:58;;;;;;;;;;;;;;;18.90;41.19;101147.58;102301;1324;61311;-84
2023/01/06 08:10:24;;;;;;;;;;;;;;;18.91;41.25;101151.98;102254;1332;61238;-83
2023/01/06 08:12:49;;;;;;;;;;;;;;;18.92;41.23;101154.64;102194;1330;61315;-83
2023/01/06 08:15:15;;;;;;;;;;;;;;;18.92;41.16;101163.67;102307;1326;61280;-83
2023/01/06 08:17:40;;;;;;;;;;;;;;;18.93;41.22;101168.12;102189;1326;61401;-83
2023/01/06 08:20:06;;;;;;;;;;;;;;;18.94;41.08;101169.67;101410;1325;1216587;-83
2023/01/06 08:22:31;;;;;;;;;;;;;;;18.95;41.04;101172.81;102274;1327;61308;-83
2023/01/06 08:24:57;;;;;;;;;;;;;;;18.95;41.01;101174.41;102275;1329;61349;-83
2023/01/06 08:27:23;;;;;;;;;;;;;;;18.96;41.15;101175.47;102308;1327;61442;-83
2023/01/06 08:29:48;;;;;;;;;;;;;;;18.96;41.17;101176.86;102237;1332;61299;-83
2023/01/06 08:32:14;;;;;;;;;;;;;;;18.97;40.98;101177.36;102215;1326;61314;-83
2023/01/06 08:34:40;;;;;;;;;;;;;;;18.97;41.14;101175.37;102235;1329;61396;-83
2023/01/06 08:37:05;;;;;;;;;;;;;;;18.98;40.92;101179.27;102230;1328;61411;-83
2023/01/06 08:39:30;;;;;;;;;;;;;;;18.98;40.97;101182.30;102234;1324;61431;-83
2023/01/06 08:41:56;;;;;;;;;;;;;;;18.98;40.86;101186.72;102247;1326;61368;-84
2023/01/06 08:44:21;;;;;;;;;;;;;;;18.99;41.10;101184.38;102196;1326;61451;-83
2023/01/06 08:46:47;;;;;;;;;;;;;;;19.00;41.07;101182.55;102193;1332;60078;-82
2023/01/06 08:49:12;;;;;;;;;;;;;;;18.99;40.98;101184.04;102334;1323;60557;-83
2023/01/06 08:51:37;;;;;;;;;;;;;;;18.99;40.93;101181.55;102239;1320;61331;-83
2023/01/06 08:54:03;;;;;;;;;;;;;;;18.99;40.99;101186.85;102299;1330;61323;-83
2023/01/06 08:56:30;;;;;;;;;;;;;;;19.00;40.93;101187.92;102308;1326;60131;-82
2023/01/06 08:58:59;;;;;;;;;;;;;;;19.01;41.11;101186.98;102286;1326;61080;-82
2023/01/06 09:01:26;;;;;;;;;;;;;;;19.01;40.88;101188.19;102347;1326;73400;-84
2023/01/06 09:03:51;;;;;;;;;;;;;;;19.02;40.96;101192.59;102256;1318;74546;-82
2023/01/06 09:06:17;;;;;;;;;;;;;;;19.02;40.97;101190.79;102236;1327;61305;-82
2023/01/06 09:08:42;;;;;;;;;;;;;;;19.03;41.06;101191.09;102300;1326;60893;-83
2023/01/06 09:11:08;;;;;;;;;;;;;;;19.03;41.01;101199.30;102167;1329;61302;-83
2023/01/06 09:13:34;;;;;;;;;;;;;;;19.03;40.96;101202.48;102382;1326;61319;-83
2023/01/06 09:15:59;;;;;;;;;;;;;;;19.04;40.82;101201.58;102193;1321;74846;-83
2023/01/06 09:18:25;;;;;;;;;;;;;;;19.04;40.96;101198.55;102186;1332;61354;-83
2023/01/06 09:20:50;;;;;;;;;;;;;;;19.04;40.99;101191.76;102150;1323;61322;-83
2023/01/06 09:23:16;;;;;;;;;;;;;;;19.05;40.89;101194.39;102263;1326;61361;-83
2023/01/06 09:25:41;;;;;;;;;;;;;;;19.04;40.81;101193.16;102229;1333;61405;-83
2023/01/06 09:28:06;;;;;;;;;;;;;;;19.05;40.90;101187.95;102172;1326;61237;-82
2023/01/06 09:30:32;;;;;;;;;;;;;;;19.05;40.93;101185.85;102192;1334;61425;-83
2023/01/06 09:32:57;;;;;;;;;;;;;;;19.05;41.04;101189.58;102286;1324;61734;-83
2023/01/06 09:35:23;;;;;;;;;;;;;;;19.05;41.06;101181.54;102213;1327;61366;-83
2023/01/06 09:37:48;;;;;;;;;;;;;;;19.05;40.89;101180.64;102240;1326;61392;-83
2023/01/06 09:40:17;;;;;;;;;;;;;;;19.05;41.00;101174.23;102236;1329;60145;-83
2023/01/06 09:42:55;;;;;;;;;;;;;;;19.06;40.95;101169.52;102094;1330;61191;-83
2023/01/06 09:45:53;;;;;;;;;;;;;;;19.06;40.97;101168.45;102392;1325;61422;-83
2023/01/06 09:48:20;;;;;;;;;;;;;;;19.06;40.93;101164.88;101930;1338;72527;-83
2023/01/06 09:50:55;;;;;;;;;;;;;;;19.06;40.77;101163.46;101922;1334;74612;-83
2023/01/06 09:53:25;;;;;;;;;;;;;;;19.06;40.91;101163.80;101872;1335;61398;-84
2023/01/06 09:55:51;;;;;;;;;;;;;;;19.07;41.08;101165.02;101950;1339;61612;-84
2023/01/06 09:58:16;;;;;;;;;;;;;;;19.07;40.91;101168.23;101913;1339;61324;-84
2023/01/06 10:00:46;;;;;;;;;;;;;;;19.06;40.84;101170.57;101899;1333;61151;-83
2023/01/06 10:03:13;;;;;;;;;;;;;;;19.05;40.92;101175.29;101951;1332;61195;-83
2023/01/06 10:05:38;;;;;;;;;;;;;;;19.04;40.88;101172.86;101878;1332;61333;-83
2023/01/06 10:08:27;;;;;;;;;;;;;;;19.02;40.73;101173.17;101882;1332;61351;-83
2023/01/06 10:10:58;;;;;;;;;;;;;;;19.00;40.84;101167.73;101865;1340;73629;-84
2023/01/06 10:13:33;;;;;;;;;;;;;;;18.98;40.71;101163.40;101888;1332;61216;-83
2023/01/06 10:16:02;;;;;;;;;;;;;;;18.95;40.78;101166.77;101951;1332;61408;-84
2023/01/06 10:18:40;;;;;;;;;;;;;;;18.92;40.85;101169.04;101960;1335;73420;-84
2023/01/06 10:21:08;;;;;;;;;;;;;;;18.90;40.94;101172.39;101941;1339;74438;-83
2023/01/06 10:23:34;;;;;;;;;;;;;;;18.87;40.95;101167.54;101971;1334;60158;-83
2023/01/06 10:26:19;;;;;;;;;;;;;;;18.85;41.08;101170.86;102269;1332;61324;-84
2023/01/06 10:28:47;;;;;;;;;;;;;;;18.83;41.01;101172.94;102253;1326;73751;-84
2023/01/06 10:31:16;;;;;;;;;;;;;;;18.81;40.95;101176.96;102186;1326;75578;-84
2023/01/06 10:33:42;;;;;;;;;;;;;;;18.79;41.02;101173.36;102275;1333;61755;-83
2023/01/06 10:36:12;;;;;;;;;;;;;;;18.77;41.10;101173.98;102180;1323;61151;-83
2023/01/06 10:38:48;;;;;;;;;;;;;;;18.74;41.22;101171.64;102202;1334;72605;-83
2023/01/06 10:41:21;;;;;;;;;;;;;;;18.72;41.08;101168.20;102193;1326;74569;-83
2023/01/06 10:43:46;;;;;;;;;;;;;;;18.70;41.07;101165.44;102198;1326;61290;-84
2023/01/06 10:46:13;;;;;;;;;;;;;;;18.68;41.14;101169.83;102251;1326;61321;-83
2023/01/06 10:48:39;;;;;;;;;;;;;;;18.66;41.20;101168.88;102290;1320;61528;-83
2023/01/06 10:51:27;;;;;;;;;;;;;;;18.64;41.28;101163.98;102182;1329;61397;-83
2023/01/06 10:53:53;;;;;;;;;;;;;;;18.62;41.19;101162.85;102241;1326;61313;-83
2023/01/06 10:56:18;;;;;;;;;;;;;;;18.60;41.27;101157.26;102183;1329;60127;-83
2023/01/06 10:58:54;;;;;;;;;;;;;;;18.58;41.08;101161.27;102243;1334;61400;-83
2023/01/06 11:01:26;;;;;;;;;;;;;;;18.56;41.18;101160.11;102030;1332;73345;-83
2023/01/06 11:04:06;;;;;;;;;;;;;;;18.54;41.31;101163.80;102157;1327;60051;-83
2023/01/06 11:06:32;;;;;;;;;;;;;;;18.53;41.20;101164.23;102231;1327;61238;-83
2023/01/06 11:08:57;;;;;;;;;;;;;;;18.51;41.15;101165.21;102207;1334;60215;-83
2023/01/06 11:11:22;;;;;;;;;;;;;;;18.50;41.25;101161.17;102125;1330;61318;-83
2023/01/06 11:13:49;;;;;;;;;;;;;;;18.48;41.27;101160.02;102231;1326;61349;-83
2023/01/06 11:16:23;;;;;;;;;;;;;;;18.47;41.18;101152.82;102253;1326;61217;-83
2023/01/06 11:19:18;;;;;;;;;;;;;;;18.46;41.22;101158.05;102124;1318;73183;-84
2023/01/06 11:21:46;;;;;;;;;;;;;;;18.43;41.34;101159.55;102137;1326;75728;-83
2023/01/06 11:24:20;;;;;;;;;;;;;;;18.42;41.24;101161.23;102146;1329;61142;-83
2023/01/06 11:26:52;;;;;;;;;;;;;;;18.41;41.24;101159.52;102251;1327;61406;-83
2023/01/06 11:29:22;;;;;;;;;;;;;;;18.40;41.34;101167.23;102233;1326;72480;-83
2023/01/06 11:31:48;;;;;;;;;;;;;;;18.38;41.35;101167.32;102168;1324;74501;-82
2023/01/06 11:34:20;;;;;;;;;;;;;;;18.38;41.33;101168.79;102159;1329;59755;-83
2023/01/06 11:36:46;;;;;;;;;;;;;;;18.37;41.34;101171.70;102072;1332;61254;-83
2023/01/06 11:39:12;;;;;;;;;;;;;;;18.36;41.50;101174.61;102130;1329;61484;-83
2023/01/06 11:41:39;;;;;;;;;;;;;;;18.34;41.33;101170.42;102194;1327;61455;-84
2023/01/06 11:44:08;;;;;;;;;;;;;;;18.34;41.41;101173.12;102239;1326;61286;-83
2023/01/06 11:46:34;;;;;;;;;;;;;;;18.32;41.40;101174.42;102226;1326;61195;-83
2023/01/06 11:49:00;;;;;;;;;;;;;;;18.31;41.32;101169.50;102149;1327;61304;-83
2023/01/06 11:51:46;;;;;;;;;;;;;;;18.31;41.50;101170.41;102160;1332;61369;-83
2023/01/06 11:54:31;;;;;;;;;;;;;;;18.30;41.40;101169.95;102190;1329;61178;-83
2023/01/06 11:57:20;;;;;;;;;;;;;;;18.29;41.43;101173.35;102240;1327;61299;-83
2023/01/06 11:59:50;;;;;;;;;;;;;;;18.28;41.50;101173.60;101891;1327;72877;-83
2023/01/06 12:02:23;;;;;;;;;;;;;;;18.27;41.53;101174.69;102128;1334;73183;-83
2023/01/06 12:04:49;;;;;;;;;;;;;;;18.27;41.46;101175.04;102271;1326;61382;-82
2023/01/06 12:07:42;;;;;;;;;;;;;;;18.26;41.55;101179.17;102246;1328;61071;-82
2023/01/06 12:10:18;;;;;;;;;;;;;;;18.26;41.51;101177.23;102210;1327;72419;-83
2023/01/06 12:12:43;;;;;;;;;;;;;;;18.26;41.43;101178.87;102162;1327;74421;-83
2023/01/06 12:15:12;;;;;;;;;;;;;;;18.25;41.62;101178.17;102176;1326;61212;-83
2023/01/06 12:17:42;;;;;;;;;;;;;;;18.25;41.50;101177.13;102156;1326;61277;-83
2023/01/06 12:20:07;;;;;;;;;;;;;;;18.24;41.59;101174.87;102260;1334;73881;-83
2023/01/06 12:22:49;;;;;;;;;;;;;;;18.23;41.51;101182.02;102173;1326;61391;-83
2023/01/06 12:25:19;;;;;;;;;;;;;;;18.23;41.51;101181.33;102238;1330;61164;-84
2023/01/06 12:27:46;;;;;;;;;;;;;;;18.22;41.50;101181.90;102266;1326;61214;-83
2023/01/06 12:30:33;;;;;;;;;;;;;;;18.22;41.77;101180.14;102152;1329;72666;-83
2023/01/06 12:33:18;;;;;;;;;;;;;;;18.21;41.62;101179.65;102182;1332;74515;-83
2023/01/06 12:35:44;;;;;;;;;;;;;;;18.21;41.52;101185.37;102195;1330;61166;-83